الصفحة الرئيسية
METAR-TAF:

METAR-TAF

مطار :

Toamasina, مدغشقر

دائرة عرض: 18-07S, خط طول: 049-24E, ارتفاع: 5 متر

مراقبة الطقس الحالي

تاريخ ووقت الإصدار 1ساعة و 15 دقيقة قبل الساعة 01:00UTC
ريح 4 عقدة من الشمال
درجة الحرارة 23°درجة مئوية
الرطوبة 89%
ضغط 1011 hPa
الرؤية 10 كم أو أكثر
غيوم متفرقة على ارتفاع 1700 قدم
غيوم متفرقة على ارتفاع 3300 قدم

METAR: FMMT 010100Z 36004KT 9999 SCT017 SCT033 23/21 Q1011 NOSIG

زمن: 05:15 (02:15 UTC)

توقعات

تاريخ ووقت الإصدار 3ساعات و 15 دقيقة قبل الساعة 23:00UTC
التوقعات صالحة من01 الساعة 00 UTC إلى 01 الساعة 24 UTC
ريح 5 عقدة من الغرب
الرؤية 10 كم أو أكثر
غيوم متفرقة على ارتفاع 1700 قدم
غيوم مفككة على ارتفاع 3300 قدم
أصبح
من 01 الساعة 05 UTC إلى 01 الساعة 08 UTC
ريح 10 عقدة من الشرق

TAF: FMMT 302300Z 0100/0124 26005KT 9999 SCT017 BKN033 BECMG 0105/0108 08010KT

أرصاد الطقس والتوقعات من أكثر من 4000 مطار (تقارير الطقس للمطار METAR والتنبؤ بالطقس بالمطارTAF).

المحطات المتاحة هي النقط الصفراء والحمراء على الخريطة.

حرك المؤشر فوق النقطة لمعرفة اسم المحطة.

ثم انقر لمعرفة أرصاد وتوقعات الطقس.

لتغيير الخارطة: اضغط على الأزرار الخضراء مع رمز الصليب الأسود للتكبير. على الزر الأخضر مع شرطة للتصغير، أو على الأسهم الخضراء للخرائط المجاورة.


METAR-TAF: